Skip to Main Content

Video Notice: If you see just a black screen when trying to view Live Traffic cameras, please click inside the window to get video to play. An update to certain browsers is not allowing the video to auto-play when the window opens. 

SEARCH:
Location Air RH Dwp Precip Type Wind Speed Wind Gust Direction Pavement Temperature Date/Time
Hatem Bridge US 40 E/B 49 80 43 None Calm Calm SE 47 - 47 10/23/2018 8:58:00 AM
I-270 at I-370 46 79 41 None Calm Calm N 47 - 49 10/23/2018 8:55:00 AM
I-270 at MD-109 45 98 45 None Calm 4 mph NE 45 - 50 10/23/2018 8:55:00 AM
I-495 at American Legion Bridge 44 95 43 None Calm Calm NW 49 - 51 10/23/2018 8:55:00 AM
I-68 at Savage Mt 48 63 36 None Calm 6 mph S 45 - 46 10/23/2018 8:55:00 AM
I-68 at Sideling Hill 52 64 40 None 7 mph 12 mph S 53 - 53 10/23/2018 8:55:00 AM
I-68 at US 219 42 77 35 None 13 mph 23 mph W 41 - 45 10/23/2018 8:55:00 AM
I-68 at WV Line 44 67 34 None 9 mph 18 mph SW 46 - 48 10/23/2018 8:55:00 AM
I-695 at I-83 50 77 43 None 4 mph 9 mph N 50 - 54 10/23/2018 8:55:00 AM
I-695 on FSK Bridge 48 82 43 None Calm 5 mph NE 51 - 51 10/23/2018 8:56:00 AM
I-70 at Fred-Wash Co. 51 59 37 None Calm 8 mph SW 50 - 54 10/23/2018 8:55:00 AM
I-70 at I-695 48 77 41 None 6 mph 9 mph W 49 - 56 10/23/2018 8:55:00 AM
I-70 at I-81 45 84 41 None Calm 5 mph SW 48 - 48 10/23/2018 8:55:00 AM
I-70 at MD-27 51 63 39 None Calm 7 mph SW 50 - 54 10/23/2018 8:55:00 AM
I-70 at MD-32 43 93 41 None Calm Calm SE 48 - 51 10/23/2018 8:55:00 AM
I-83 at MD-137 51 75 43 None Calm 6 mph SW 48 - 51 10/23/2018 8:55:00 AM
I-95 at I-695 NE 50 71 42 None 4 mph 5 mph SW 50 - 56 10/23/2018 8:56:00 AM
I-95 at Patuxent River 51 80 45 None Calm 9 mph NW 52 - 54 10/23/2018 8:55:00 AM
I-95 at Tydings Bridge 50 76 43 None Calm 8 mph E 52 - 53 10/23/2018 8:55:00 AM
I-95/495 at I-295 56 70 47 None Calm Calm SW 49 - 54 10/23/2018 8:55:00 AM
I-97 at MD-100 50 75 43 None Calm 6 mph SW 50 - 52 10/23/2018 8:55:00 AM
I-97 at MD-32 47 82 42 None Calm 7 mph W 48 - 52 10/23/2018 8:55:00 AM
MD 136 @ MD 646 46 87 43 No Data Available Calm Calm N 54 - 54 10/23/2018 8:55:00 AM
MD 20 at MD 21 49 83 44 None Calm 5 mph SW 50 - 50 10/23/2018 8:55:00 AM
MD 23 at Meadowtree Road 50 71 41 No Data Available Calm Calm N 52 - 52 10/23/2018 8:55:00 AM
MD 231 at Patuxent River 48 85 44 None Calm 4 mph W 49 - 52 10/23/2018 8:55:00 AM
MD 24 at Jarrettsville Road 50 69 41 No Data Available Calm 7 mph W 55 - 55 10/23/2018 8:55:00 AM
MD 260 at Cox Rd 48 78 42 None 4 mph 9 mph W 55 - 55 10/23/2018 8:55:00 AM
MD-135 at Salt Dome 43 80 37 None 4 mph 13 mph SW 41 - 41 10/23/2018 8:55:00 AM
MD-140 at MD-97 46 77 39 None Calm 6 mph SW 50 - 51 10/23/2018 8:55:00 AM
MD-200 EB at Bonifant Rd - - - No Data Available - - No Data Available -
MD-200 WB at Muncaster Mill Rd 45 83 41 None Calm 9 mph SE 49 - 49 10/23/2018 8:59:00 AM
MD-213 at Sassafras River 50 92 47 None 4 mph 7 mph SW 50 - 50 10/23/2018 8:55:00 AM
MD-24 at Rock St Park 44 100 44 None Calm Calm N 46 - 46 10/23/2018 8:55:00 AM
MD-30 at PA Line 49 70 40 None 6 mph 12 mph SW 48 - 48 10/23/2018 8:55:00 AM
MD-33 at Knapps Narrows Drawbridge 54 69 44 None 6 mph 11 mph SW 54 - 54 10/23/2018 8:55:00 AM
MD-344 at MD-224 43 96 42 None Calm Calm N 46 - 46 10/23/2018 8:55:00 AM
MD-4 at Patuxent River 51 84 46 None 5 mph 8 mph SW 50 - 54 10/23/2018 8:56:00 AM
MD-404 at Choptank River 50 80 45 None 5 mph 10 mph S 52 - 53 10/23/2018 8:55:00 AM
MD-43 at MD-150 51 77 44 None 5 mph 7 mph W 51 - 55 10/23/2018 8:55:00 AM
MD-51 at Oldtown Salt Dome 44 91 41 None Calm Calm E 49 - 49 10/23/2018 8:55:00 AM
MD-64 at MD-418 43 93 41 None Calm Calm NW 49 - 51 10/23/2018 8:55:00 AM
US 301 at MD 305 49 83 45 None Calm 5 mph W 52 - 53 10/23/2018 8:55:00 AM
US-1 at Baltimore / Harford Co. Line 44 93 42 None Calm Calm NW 43 - 45 10/23/2018 8:55:00 AM
US-1 at Conowingo Dam 48 91 46 None Calm Calm SW 51 - 51 10/23/2018 8:55:00 AM
US-13 at US-113 50 81 45 None Calm 5 mph SW 55 - 56 10/23/2018 8:55:00 AM
US-13 at US-50 51 78 44 None Calm 9 mph SW 45 - 45 10/23/2018 8:55:00 AM
US-15 at MD-140 43 92 41 None Calm Calm SE 46 - 48 10/23/2018 8:55:00 AM
US-301 at MD-5 46 94 45 None Calm 5 mph W 49 - 52 10/23/2018 8:55:00 AM
US-301 at Potomac 54 74 46 None Calm Calm SW 51 - 51 10/23/2018 8:56:00 AM
US-340 at MD-180 44 86 40 None Calm Calm N 44 - 47 10/23/2018 8:55:00 AM
US-50 at Choptank 51 87 48 None Calm 7 mph SW 48 - 52 10/23/2018 8:55:00 AM
US-50 at I-95 48 88 45 None Calm 4 mph N 51 - 53 10/23/2018 8:55:00 AM
US-50 at MD-2 48 87 44 None Calm 6 mph S 49 - 50 10/23/2018 8:55:00 AM
US-50 at MD-331 53 76 45 None 4 mph 6 mph SW 52 - 55 10/23/2018 8:55:00 AM
US-50 at OC Drawbridge 54 72 45 None 5 mph 11 mph SW 57 - 57 10/23/2018 8:55:00 AM
US-50 at Table Rock Rd 42 80 36 None 5 mph 13 mph NW 43 - 43 10/23/2018 8:55:00 AM
US-50 Kent Narrow Bridge 52 83 47 None 5 mph 8 mph S 52 - 55 10/23/2018 8:55:00 AM
WPL Pier 31 49 80 43 None 7 mph 9 mph SW 53 - 53 10/23/2018 8:59:00 AM
Location Air RH Dwp Precip Type Wind Speed Wind Gust Direction Pavement Temperature Date/Time